sensor_id;sensor_type;location;lat;lon;timestamp;P1;durP1;ratioP1;P2;durP2;ratioP2
16612;SDS011;8419;52.358;9.752;2023-09-19T00:00:08;1.45;;;1.35;;
16612;SDS011;8419;52.358;9.752;2023-09-19T00:02:57;1.60;;;1.20;;
16612;SDS011;8419;52.358;9.752;2023-09-19T00:05:44;3.92;;;1.20;;
16612;SDS011;8419;52.358;9.752;2023-09-19T00:08:29;2.00;;;1.27;;
16612;SDS011;8419;52.358;9.752;2023-09-19T00:11:15;3.03;;;1.65;;
16612;SDS011;8419;52.358;9.752;2023-09-19T00:14:01;1.17;;;1.10;;
16612;SDS011;8419;52.358;9.752;2023-09-19T00:16:46;0.55;;;0.50;;
16612;SDS011;8419;52.358;9.752;2023-09-19T00:19:34;3.55;;;1.60;;
16612;SDS011;8419;52.358;9.752;2023-09-19T00:22:19;2.15;;;1.20;;
16612;SDS011;8419;52.358;9.752;2023-09-19T00:25:05;3.55;;;1.23;;
16612;SDS011;8419;52.358;9.752;2023-09-19T00:27:51;2.05;;;1.25;;
16612;SDS011;8419;52.358;9.752;2023-09-19T00:30:37;2.45;;;1.27;;
16612;SDS011;8419;52.358;9.752;2023-09-19T00:33:23;0.90;;;0.50;;
16612;SDS011;8419;52.358;9.752;2023-09-19T00:36:08;3.05;;;1.60;;
16612;SDS011;8419;52.358;9.752;2023-09-19T00:38:54;4.25;;;1.85;;
16612;SDS011;8419;52.358;9.752;2023-09-19T00:41:40;2.33;;;1.92;;
16612;SDS011;8419;52.358;9.752;2023-09-19T00:44:29;2.83;;;1.70;;
16612;SDS011;8419;52.358;9.752;2023-09-19T00:47:14;0.90;;;0.75;;
16612;SDS011;8419;52.358;9.752;2023-09-19T00:50:00;2.78;;;1.90;;
16612;SDS011;8419;52.358;9.752;2023-09-19T00:52:47;3.78;;;1.92;;
16612;SDS011;8419;52.358;9.752;2023-09-19T00:55:34;2.00;;;1.30;;
16612;SDS011;8419;52.358;9.752;2023-09-19T00:58:21;3.35;;;1.77;;
16612;SDS011;8419;52.358;9.752;2023-09-19T01:01:07;2.60;;;1.58;;
16612;SDS011;8419;52.358;9.752;2023-09-19T01:03:53;2.95;;;1.02;;
16612;SDS011;8419;52.358;9.752;2023-09-19T01:06:38;4.12;;;1.73;;
16612;SDS011;8419;52.358;9.752;2023-09-19T01:09:24;1.40;;;1.12;;
16612;SDS011;8419;52.358;9.752;2023-09-19T01:12:11;3.33;;;2.12;;
16612;SDS011;8419;52.358;9.752;2023-09-19T01:15:09;4.30;;;1.15;;
16612;SDS011;8419;52.358;9.752;2023-09-19T01:18:00;1.77;;;1.40;;
16612;SDS011;8419;52.358;9.752;2023-09-19T01:20:55;1.85;;;1.62;;
16612;SDS011;8419;52.358;9.752;2023-09-19T01:23:57;5.65;;;2.28;;
16612;SDS011;8419;52.358;9.752;2023-09-19T01:27:16;4.43;;;1.77;;
16612;SDS011;8419;52.358;9.752;2023-09-19T01:30:10;3.47;;;1.48;;
16612;SDS011;8419;52.358;9.752;2023-09-19T01:33:00;2.58;;;2.35;;
16612;SDS011;8419;52.358;9.752;2023-09-19T01:35:48;3.12;;;2.15;;
16612;SDS011;8419;52.358;9.752;2023-09-19T01:38:34;2.55;;;1.92;;
16612;SDS011;8419;52.358;9.752;2023-09-19T01:41:24;3.83;;;3.22;;
16612;SDS011;8419;52.358;9.752;2023-09-19T01:44:17;4.43;;;2.17;;
16612;SDS011;8419;52.358;9.752;2023-09-19T01:47:12;4.20;;;2.65;;
16612;SDS011;8419;52.358;9.752;2023-09-19T01:50:10;5.07;;;2.47;;
16612;SDS011;8419;52.358;9.752;2023-09-19T01:53:04;5.30;;;2.60;;
16612;SDS011;8419;52.358;9.752;2023-09-19T01:55:58;5.18;;;2.40;;
16612;SDS011;8419;52.358;9.752;2023-09-19T01:58:46;5.07;;;2.70;;
16612;SDS011;8419;52.358;9.752;2023-09-19T02:01:36;2.97;;;1.80;;
16612;SDS011;8419;52.358;9.752;2023-09-19T02:04:23;3.50;;;2.33;;
16612;SDS011;8419;52.358;9.752;2023-09-19T02:07:09;6.43;;;2.42;;
16612;SDS011;8419;52.358;9.752;2023-09-19T02:09:55;4.65;;;2.05;;
16612;SDS011;8419;52.358;9.752;2023-09-19T02:12:41;6.25;;;2.37;;
16612;SDS011;8419;52.358;9.752;2023-09-19T02:15:26;4.25;;;3.05;;
16612;SDS011;8419;52.358;9.752;2023-09-19T02:18:12;6.25;;;2.95;;
16612;SDS011;8419;52.358;9.752;2023-09-19T02:20:58;2.95;;;2.42;;
16612;SDS011;8419;52.358;9.752;2023-09-19T02:23:44;7.85;;;2.85;;
16612;SDS011;8419;52.358;9.752;2023-09-19T02:26:31;3.00;;;2.55;;
16612;SDS011;8419;52.358;9.752;2023-09-19T02:29:21;4.87;;;3.12;;
16612;SDS011;8419;52.358;9.752;2023-09-19T02:32:06;4.00;;;3.10;;
16612;SDS011;8419;52.358;9.752;2023-09-19T02:34:53;7.12;;;3.15;;
16612;SDS011;8419;52.358;9.752;2023-09-19T02:37:39;4.28;;;2.92;;
16612;SDS011;8419;52.358;9.752;2023-09-19T02:40:25;3.53;;;2.42;;
16612;SDS011;8419;52.358;9.752;2023-09-19T02:43:11;5.35;;;3.30;;
16612;SDS011;8419;52.358;9.752;2023-09-19T02:45:57;5.30;;;3.17;;
16612;SDS011;8419;52.358;9.752;2023-09-19T02:48:43;7.28;;;3.22;;
16612;SDS011;8419;52.358;9.752;2023-09-19T02:51:30;5.62;;;3.28;;
16612;SDS011;8419;52.358;9.752;2023-09-19T02:54:18;1.95;;;1.58;;
16612;SDS011;8419;52.358;9.752;2023-09-19T02:57:04;2.58;;;2.15;;
16612;SDS011;8419;52.358;9.752;2023-09-19T02:59:51;4.10;;;2.42;;
16612;SDS011;8419;52.358;9.752;2023-09-19T03:02:37;8.52;;;3.40;;
16612;SDS011;8419;52.358;9.752;2023-09-19T03:05:25;3.53;;;3.22;;
16612;SDS011;8419;52.358;9.752;2023-09-19T03:08:15;7.87;;;3.17;;
16612;SDS011;8419;52.358;9.752;2023-09-19T03:11:03;5.50;;;2.87;;
16612;SDS011;8419;52.358;9.752;2023-09-19T03:13:53;2.42;;;1.45;;
16612;SDS011;8419;52.358;9.752;2023-09-19T03:16:39;6.15;;;3.62;;
16612;SDS011;8419;52.358;9.752;2023-09-19T03:19:26;3.55;;;2.22;;
16612;SDS011;8419;52.358;9.752;2023-09-19T03:22:14;4.95;;;2.45;;
16612;SDS011;8419;52.358;9.752;2023-09-19T03:25:03;3.42;;;2.30;;
16612;SDS011;8419;52.358;9.752;2023-09-19T03:27:52;2.90;;;2.50;;
16612;SDS011;8419;52.358;9.752;2023-09-19T03:30:37;5.35;;;2.50;;
16612;SDS011;8419;52.358;9.752;2023-09-19T03:33:23;4.87;;;2.05;;
16612;SDS011;8419;52.358;9.752;2023-09-19T03:36:09;2.92;;;2.25;;
16612;SDS011;8419;52.358;9.752;2023-09-19T03:38:54;7.10;;;2.65;;
16612;SDS011;8419;52.358;9.752;2023-09-19T03:41:40;4.93;;;2.42;;
16612;SDS011;8419;52.358;9.752;2023-09-19T03:44:26;4.22;;;2.55;;
16612;SDS011;8419;52.358;9.752;2023-09-19T03:47:12;4.35;;;2.33;;
16612;SDS011;8419;52.358;9.752;2023-09-19T03:49:57;6.43;;;2.05;;
16612;SDS011;8419;52.358;9.752;2023-09-19T03:52:44;5.62;;;2.58;;
16612;SDS011;8419;52.358;9.752;2023-09-19T03:55:30;3.87;;;2.00;;
16612;SDS011;8419;52.358;9.752;2023-09-19T03:58:16;7.05;;;2.12;;
16612;SDS011;8419;52.358;9.752;2023-09-19T04:01:02;4.07;;;2.10;;
16612;SDS011;8419;52.358;9.752;2023-09-19T04:03:48;4.70;;;2.08;;
16612;SDS011;8419;52.358;9.752;2023-09-19T04:06:36;6.87;;;2.50;;
16612;SDS011;8419;52.358;9.752;2023-09-19T04:09:21;4.35;;;2.30;;
16612;SDS011;8419;52.358;9.752;2023-09-19T04:12:07;7.28;;;2.58;;
16612;SDS011;8419;52.358;9.752;2023-09-19T04:14:53;7.75;;;2.58;;
16612;SDS011;8419;52.358;9.752;2023-09-19T04:17:38;5.90;;;2.72;;
16612;SDS011;8419;52.358;9.752;2023-09-19T04:20:24;3.33;;;2.00;;
16612;SDS011;8419;52.358;9.752;2023-09-19T04:23:12;7.45;;;2.55;;
16612;SDS011;8419;52.358;9.752;2023-09-19T04:25:59;6.10;;;2.40;;
16612;SDS011;8419;52.358;9.752;2023-09-19T04:28:44;5.35;;;1.98;;
16612;SDS011;8419;52.358;9.752;2023-09-19T04:31:30;3.95;;;2.15;;
16612;SDS011;8419;52.358;9.752;2023-09-19T04:34:16;8.27;;;2.75;;
16612;SDS011;8419;52.358;9.752;2023-09-19T04:37:02;5.45;;;2.87;;
16612;SDS011;8419;52.358;9.752;2023-09-19T04:39:48;6.62;;;2.33;;
16612;SDS011;8419;52.358;9.752;2023-09-19T04:42:34;5.12;;;2.42;;
16612;SDS011;8419;52.358;9.752;2023-09-19T04:45:19;3.22;;;1.95;;
16612;SDS011;8419;52.358;9.752;2023-09-19T04:48:05;4.72;;;2.67;;
16612;SDS011;8419;52.358;9.752;2023-09-19T04:50:52;6.50;;;2.40;;
16612;SDS011;8419;52.358;9.752;2023-09-19T04:53:39;7.70;;;3.05;;
16612;SDS011;8419;52.358;9.752;2023-09-19T04:56:25;5.20;;;3.05;;
16612;SDS011;8419;52.358;9.752;2023-09-19T04:59:12;7.43;;;2.92;;
16612;SDS011;8419;52.358;9.752;2023-09-19T05:01:59;5.80;;;3.00;;
16612;SDS011;8419;52.358;9.752;2023-09-19T05:04:45;5.62;;;3.12;;
16612;SDS011;8419;52.358;9.752;2023-09-19T05:07:30;7.20;;;2.25;;
16612;SDS011;8419;52.358;9.752;2023-09-19T05:10:18;4.50;;;3.60;;
16612;SDS011;8419;52.358;9.752;2023-09-19T05:13:04;8.82;;;3.60;;
16612;SDS011;8419;52.358;9.752;2023-09-19T05:15:51;7.37;;;4.10;;
16612;SDS011;8419;52.358;9.752;2023-09-19T05:18:37;10.93;;;3.97;;
16612;SDS011;8419;52.358;9.752;2023-09-19T05:21:22;6.28;;;3.70;;
16612;SDS011;8419;52.358;9.752;2023-09-19T05:24:08;9.65;;;4.18;;
16612;SDS011;8419;52.358;9.752;2023-09-19T05:27:00;6.32;;;3.50;;
16612;SDS011;8419;52.358;9.752;2023-09-19T05:29:45;4.57;;;1.85;;
16612;SDS011;8419;52.358;9.752;2023-09-19T05:32:33;7.68;;;3.90;;
16612;SDS011;8419;52.358;9.752;2023-09-19T05:35:18;8.75;;;3.75;;
16612;SDS011;8419;52.358;9.752;2023-09-19T05:38:07;6.87;;;3.65;;
16612;SDS011;8419;52.358;9.752;2023-09-19T05:40:54;7.72;;;3.78;;
16612;SDS011;8419;52.358;9.752;2023-09-19T05:43:41;7.97;;;3.95;;
16612;SDS011;8419;52.358;9.752;2023-09-19T05:46:26;3.28;;;2.33;;
16612;SDS011;8419;52.358;9.752;2023-09-19T05:49:13;6.00;;;3.30;;
16612;SDS011;8419;52.358;9.752;2023-09-19T05:51:59;4.35;;;2.65;;
16612;SDS011;8419;52.358;9.752;2023-09-19T05:54:45;5.00;;;2.90;;
16612;SDS011;8419;52.358;9.752;2023-09-19T05:57:30;4.68;;;3.03;;
16612;SDS011;8419;52.358;9.752;2023-09-19T06:00:17;8.18;;;3.25;;
16612;SDS011;8419;52.358;9.752;2023-09-19T06:03:06;9.27;;;3.85;;
16612;SDS011;8419;52.358;9.752;2023-09-19T06:05:54;5.12;;;3.58;;
16612;SDS011;8419;52.358;9.752;2023-09-19T06:08:41;10.43;;;4.50;;
16612;SDS011;8419;52.358;9.752;2023-09-19T06:11:29;4.72;;;2.45;;
16612;SDS011;8419;52.358;9.752;2023-09-19T06:14:19;9.20;;;4.30;;
16612;SDS011;8419;52.358;9.752;2023-09-19T06:17:04;6.93;;;3.45;;
16612;SDS011;8419;52.358;9.752;2023-09-19T06:19:50;8.80;;;3.20;;
16612;SDS011;8419;52.358;9.752;2023-09-19T06:22:39;7.03;;;3.70;;
16612;SDS011;8419;52.358;9.752;2023-09-19T06:25:26;3.45;;;1.83;;
16612;SDS011;8419;52.358;9.752;2023-09-19T06:28:12;5.18;;;3.45;;
16612;SDS011;8419;52.358;9.752;2023-09-19T06:30:59;6.22;;;2.72;;
16612;SDS011;8419;52.358;9.752;2023-09-19T06:33:46;6.75;;;4.05;;
16612;SDS011;8419;52.358;9.752;2023-09-19T06:36:32;2.70;;;2.08;;
16612;SDS011;8419;52.358;9.752;2023-09-19T06:39:18;5.87;;;3.50;;
16612;SDS011;8419;52.358;9.752;2023-09-19T06:42:03;7.25;;;2.80;;
16612;SDS011;8419;52.358;9.752;2023-09-19T06:44:50;9.85;;;3.80;;
16612;SDS011;8419;52.358;9.752;2023-09-19T06:47:37;8.43;;;3.15;;
16612;SDS011;8419;52.358;9.752;2023-09-19T06:50:23;5.43;;;3.40;;
16612;SDS011;8419;52.358;9.752;2023-09-19T06:53:09;6.75;;;2.80;;
16612;SDS011;8419;52.358;9.752;2023-09-19T06:55:55;5.85;;;2.83;;
16612;SDS011;8419;52.358;9.752;2023-09-19T06:58:41;5.95;;;3.03;;
16612;SDS011;8419;52.358;9.752;2023-09-19T07:01:27;10.52;;;2.70;;
16612;SDS011;8419;52.358;9.752;2023-09-19T07:04:13;10.63;;;2.87;;
16612;SDS011;8419;52.358;9.752;2023-09-19T07:06:58;8.35;;;2.22;;
16612;SDS011;8419;52.358;9.752;2023-09-19T07:09:44;1.10;;;0.80;;
16612;SDS011;8419;52.358;9.752;2023-09-19T07:12:33;4.12;;;1.52;;
16612;SDS011;8419;52.358;9.752;2023-09-19T07:15:18;5.78;;;2.00;;
16612;SDS011;8419;52.358;9.752;2023-09-19T07:18:05;5.37;;;1.95;;
16612;SDS011;8419;52.358;9.752;2023-09-19T07:20:57;7.55;;;2.10;;
16612;SDS011;8419;52.358;9.752;2023-09-19T07:23:49;6.97;;;2.28;;
16612;SDS011;8419;52.358;9.752;2023-09-19T07:26:34;1.50;;;0.77;;
16612;SDS011;8419;52.358;9.752;2023-09-19T07:29:21;2.20;;;1.02;;
16612;SDS011;8419;52.358;9.752;2023-09-19T07:32:07;4.62;;;1.37;;
16612;SDS011;8419;52.358;9.752;2023-09-19T07:34:54;3.83;;;1.35;;
16612;SDS011;8419;52.358;9.752;2023-09-19T07:37:39;5.05;;;2.20;;
16612;SDS011;8419;52.358;9.752;2023-09-19T07:40:25;5.37;;;1.70;;
16612;SDS011;8419;52.358;9.752;2023-09-19T07:43:11;5.47;;;0.90;;
16612;SDS011;8419;52.358;9.752;2023-09-19T07:45:56;6.03;;;1.70;;
16612;SDS011;8419;52.358;9.752;2023-09-19T07:48:45;7.12;;;1.77;;
16612;SDS011;8419;52.358;9.752;2023-09-19T07:51:33;5.50;;;1.02;;
16612;SDS011;8419;52.358;9.752;2023-09-19T07:54:19;1.25;;;0.80;;
16612;SDS011;8419;52.358;9.752;2023-09-19T07:57:05;2.12;;;1.45;;
16612;SDS011;8419;52.358;9.752;2023-09-19T07:59:51;2.42;;;0.98;;
16612;SDS011;8419;52.358;9.752;2023-09-19T08:02:37;6.62;;;1.45;;
16612;SDS011;8419;52.358;9.752;2023-09-19T08:05:24;7.40;;;1.95;;
16612;SDS011;8419;52.358;9.752;2023-09-19T08:08:10;3.33;;;1.23;;
16612;SDS011;8419;52.358;9.752;2023-09-19T08:10:57;8.65;;;1.73;;
16612;SDS011;8419;52.358;9.752;2023-09-19T08:13:43;3.70;;;1.17;;
16612;SDS011;8419;52.358;9.752;2023-09-19T08:16:29;4.10;;;1.05;;
16612;SDS011;8419;52.358;9.752;2023-09-19T08:19:16;9.07;;;1.70;;
16612;SDS011;8419;52.358;9.752;2023-09-19T08:22:01;3.97;;;1.70;;
16612;SDS011;8419;52.358;9.752;2023-09-19T08:24:49;3.78;;;1.67;;
16612;SDS011;8419;52.358;9.752;2023-09-19T08:27:34;3.72;;;1.45;;
16612;SDS011;8419;52.358;9.752;2023-09-19T08:30:22;6.65;;;1.77;;
16612;SDS011;8419;52.358;9.752;2023-09-19T08:33:08;8.93;;;1.27;;
16612;SDS011;8419;52.358;9.752;2023-09-19T08:35:56;4.35;;;1.20;;
16612;SDS011;8419;52.358;9.752;2023-09-19T08:38:41;5.07;;;2.20;;
16612;SDS011;8419;52.358;9.752;2023-09-19T08:41:26;1.50;;;0.82;;
16612;SDS011;8419;52.358;9.752;2023-09-19T08:44:13;2.75;;;1.15;;
16612;SDS011;8419;52.358;9.752;2023-09-19T08:47:01;5.95;;;0.98;;
16612;SDS011;8419;52.358;9.752;2023-09-19T08:49:57;4.78;;;1.37;;
16612;SDS011;8419;52.358;9.752;2023-09-19T08:52:48;2.72;;;1.10;;
16612;SDS011;8419;52.358;9.752;2023-09-19T08:55:38;6.95;;;1.45;;
16612;SDS011;8419;52.358;9.752;2023-09-19T08:58:30;0.55;;;0.47;;
16612;SDS011;8419;52.358;9.752;2023-09-19T09:01:25;1.48;;;0.85;;
16612;SDS011;8419;52.358;9.752;2023-09-19T09:04:13;2.70;;;0.85;;
16612;SDS011;8419;52.358;9.752;2023-09-19T09:06:59;12.18;;;1.55;;
16612;SDS011;8419;52.358;9.752;2023-09-19T09:09:47;3.72;;;1.45;;
16612;SDS011;8419;52.358;9.752;2023-09-19T09:12:33;1.87;;;1.08;;
16612;SDS011;8419;52.358;9.752;2023-09-19T09:15:21;3.37;;;1.08;;
16612;SDS011;8419;52.358;9.752;2023-09-19T09:18:07;1.58;;;0.98;;
16612;SDS011;8419;52.358;9.752;2023-09-19T09:20:52;5.75;;;1.40;;
16612;SDS011;8419;52.358;9.752;2023-09-19T09:23:40;7.20;;;1.73;;
16612;SDS011;8419;52.358;9.752;2023-09-19T09:26:40;4.32;;;1.40;;
16612;SDS011;8419;52.358;9.752;2023-09-19T09:29:40;1.77;;;1.00;;
16612;SDS011;8419;52.358;9.752;2023-09-19T09:32:28;8.55;;;1.23;;
16612;SDS011;8419;52.358;9.752;2023-09-19T09:35:18;3.67;;;1.42;;
16612;SDS011;8419;52.358;9.752;2023-09-19T09:38:05;6.10;;;1.55;;
16612;SDS011;8419;52.358;9.752;2023-09-19T09:40:54;3.78;;;1.52;;
16612;SDS011;8419;52.358;9.752;2023-09-19T09:43:45;6.12;;;1.90;;
16612;SDS011;8419;52.358;9.752;2023-09-19T09:46:32;1.80;;;0.88;;
16612;SDS011;8419;52.358;9.752;2023-09-19T09:49:43;2.53;;;1.30;;
16612;SDS011;8419;52.358;9.752;2023-09-19T09:52:45;3.65;;;1.12;;
16612;SDS011;8419;52.358;9.752;2023-09-19T09:55:34;1.83;;;1.30;;
16612;SDS011;8419;52.358;9.752;2023-09-19T09:58:51;6.78;;;1.27;;
16612;SDS011;8419;52.358;9.752;2023-09-19T10:01:46;5.80;;;1.73;;
16612;SDS011;8419;52.358;9.752;2023-09-19T10:04:33;5.28;;;1.60;;
16612;SDS011;8419;52.358;9.752;2023-09-19T10:07:27;3.97;;;1.37;;
16612;SDS011;8419;52.358;9.752;2023-09-19T10:10:29;5.80;;;1.65;;
16612;SDS011;8419;52.358;9.752;2023-09-19T10:13:28;2.55;;;1.02;;
16612;SDS011;8419;52.358;9.752;2023-09-19T10:16:17;5.25;;;1.50;;
16612;SDS011;8419;52.358;9.752;2023-09-19T10:19:03;4.87;;;1.65;;
16612;SDS011;8419;52.358;9.752;2023-09-19T10:21:54;6.22;;;1.70;;
16612;SDS011;8419;52.358;9.752;2023-09-19T10:24:41;3.83;;;1.67;;
16612;SDS011;8419;52.358;9.752;2023-09-19T10:27:29;5.53;;;1.42;;
16612;SDS011;8419;52.358;9.752;2023-09-19T10:30:21;4.22;;;1.27;;
16612;SDS011;8419;52.358;9.752;2023-09-19T10:33:09;7.62;;;1.27;;
16612;SDS011;8419;52.358;9.752;2023-09-19T10:35:55;6.15;;;1.70;;
16612;SDS011;8419;52.358;9.752;2023-09-19T10:38:43;4.87;;;1.40;;
16612;SDS011;8419;52.358;9.752;2023-09-19T10:41:32;5.75;;;1.10;;
16612;SDS011;8419;52.358;9.752;2023-09-19T10:44:20;1.10;;;0.73;;
16612;SDS011;8419;52.358;9.752;2023-09-19T10:47:07;4.90;;;1.45;;
16612;SDS011;8419;52.358;9.752;2023-09-19T10:49:54;5.18;;;0.82;;
16612;SDS011;8419;52.358;9.752;2023-09-19T10:52:41;3.70;;;1.17;;
16612;SDS011;8419;52.358;9.752;2023-09-19T10:55:28;4.32;;;1.65;;
16612;SDS011;8419;52.358;9.752;2023-09-19T10:58:15;2.03;;;1.25;;
16612;SDS011;8419;52.358;9.752;2023-09-19T11:01:13;2.47;;;1.02;;
16612;SDS011;8419;52.358;9.752;2023-09-19T11:07:08;5.03;;;1.50;;
16612;SDS011;8419;52.358;9.752;2023-09-19T11:09:55;5.53;;;1.50;;
16612;SDS011;8419;52.358;9.752;2023-09-19T11:12:49;3.03;;;1.33;;
16612;SDS011;8419;52.358;9.752;2023-09-19T11:18:58;3.45;;;1.55;;
16612;SDS011;8419;52.358;9.752;2023-09-19T11:21:54;2.05;;;1.50;;
16612;SDS011;8419;52.358;9.752;2023-09-19T11:24:40;3.97;;;1.50;;
16612;SDS011;8419;52.358;9.752;2023-09-19T11:27:26;2.75;;;1.55;;
16612;SDS011;8419;52.358;9.752;2023-09-19T11:30:26;4.07;;;1.52;;
16612;SDS011;8419;52.358;9.752;2023-09-19T11:33:18;3.62;;;0.98;;
16612;SDS011;8419;52.358;9.752;2023-09-19T11:36:07;3.50;;;1.33;;
16612;SDS011;8419;52.358;9.752;2023-09-19T11:38:59;5.32;;;1.70;;
16612;SDS011;8419;52.358;9.752;2023-09-19T11:41:58;1.33;;;0.65;;
16612;SDS011;8419;52.358;9.752;2023-09-19T11:44:44;3.60;;;1.45;;
16612;SDS011;8419;52.358;9.752;2023-09-19T11:47:30;3.22;;;0.90;;
16612;SDS011;8419;52.358;9.752;2023-09-19T11:50:19;6.37;;;1.45;;
16612;SDS011;8419;52.358;9.752;2023-09-19T11:53:05;2.90;;;1.50;;
16612;SDS011;8419;52.358;9.752;2023-09-19T11:55:55;4.15;;;1.33;;
16612;SDS011;8419;52.358;9.752;2023-09-19T11:58:40;4.03;;;2.03;;
16612;SDS011;8419;52.358;9.752;2023-09-19T12:01:27;3.30;;;1.33;;
16612;SDS011;8419;52.358;9.752;2023-09-19T12:04:17;4.60;;;1.20;;
16612;SDS011;8419;52.358;9.752;2023-09-19T12:07:17;5.35;;;1.58;;
16612;SDS011;8419;52.358;9.752;2023-09-19T12:10:03;2.65;;;1.33;;
16612;SDS011;8419;52.358;9.752;2023-09-19T12:12:55;4.35;;;1.60;;
16612;SDS011;8419;52.358;9.752;2023-09-19T12:15:44;3.53;;;1.62;;
16612;SDS011;8419;52.358;9.752;2023-09-19T12:18:32;1.80;;;1.02;;
16612;SDS011;8419;52.358;9.752;2023-09-19T12:21:27;3.25;;;0.98;;
16612;SDS011;8419;52.358;9.752;2023-09-19T12:24:15;4.20;;;1.55;;
16612;SDS011;8419;52.358;9.752;2023-09-19T12:27:04;2.50;;;1.02;;
16612;SDS011;8419;52.358;9.752;2023-09-19T12:29:54;8.25;;;2.08;;
16612;SDS011;8419;52.358;9.752;2023-09-19T12:32:43;3.12;;;1.40;;
16612;SDS011;8419;52.358;9.752;2023-09-19T12:35:34;6.30;;;1.55;;
16612;SDS011;8419;52.358;9.752;2023-09-19T12:38:25;1.40;;;0.95;;
16612;SDS011;8419;52.358;9.752;2023-09-19T12:41:17;5.10;;;1.95;;
16612;SDS011;8419;52.358;9.752;2023-09-19T12:44:02;3.10;;;1.10;;
16612;SDS011;8419;52.358;9.752;2023-09-19T12:46:53;3.00;;;1.02;;
16612;SDS011;8419;52.358;9.752;2023-09-19T12:53:25;6.37;;;1.77;;
16612;SDS011;8419;52.358;9.752;2023-09-19T12:56:13;4.50;;;1.48;;
16612;SDS011;8419;52.358;9.752;2023-09-19T12:59:08;5.85;;;2.00;;
16612;SDS011;8419;52.358;9.752;2023-09-19T13:02:03;5.82;;;1.85;;
16612;SDS011;8419;52.358;9.752;2023-09-19T13:04:54;3.35;;;1.35;;
16612;SDS011;8419;52.358;9.752;2023-09-19T13:07:43;3.87;;;1.67;;
16612;SDS011;8419;52.358;9.752;2023-09-19T13:10:31;5.43;;;1.70;;
16612;SDS011;8419;52.358;9.752;2023-09-19T13:13:25;5.95;;;1.45;;
16612;SDS011;8419;52.358;9.752;2023-09-19T13:16:13;5.90;;;1.37;;
16612;SDS011;8419;52.358;9.752;2023-09-19T13:19:00;4.40;;;1.70;;
16612;SDS011;8419;52.358;9.752;2023-09-19T13:21:50;5.95;;;1.98;;
16612;SDS011;8419;52.358;9.752;2023-09-19T13:24:41;4.30;;;1.27;;
16612;SDS011;8419;52.358;9.752;2023-09-19T13:27:27;3.60;;;1.73;;
16612;SDS011;8419;52.358;9.752;2023-09-19T13:30:16;4.20;;;1.58;;
16612;SDS011;8419;52.358;9.752;2023-09-19T13:33:06;6.62;;;1.65;;
16612;SDS011;8419;52.358;9.752;2023-09-19T13:35:57;6.32;;;1.80;;
16612;SDS011;8419;52.358;9.752;2023-09-19T13:38:43;5.03;;;1.70;;
16612;SDS011;8419;52.358;9.752;2023-09-19T13:41:29;2.87;;;1.60;;
16612;SDS011;8419;52.358;9.752;2023-09-19T13:44:17;4.60;;;1.30;;
16612;SDS011;8419;52.358;9.752;2023-09-19T13:47:03;4.57;;;1.65;;
16612;SDS011;8419;52.358;9.752;2023-09-19T13:49:54;6.07;;;1.70;;
16612;SDS011;8419;52.358;9.752;2023-09-19T13:52:41;3.03;;;1.30;;
16612;SDS011;8419;52.358;9.752;2023-09-19T13:55:27;3.47;;;1.37;;
16612;SDS011;8419;52.358;9.752;2023-09-19T13:58:13;5.75;;;1.50;;
16612;SDS011;8419;52.358;9.752;2023-09-19T14:00:58;5.03;;;1.67;;
16612;SDS011;8419;52.358;9.752;2023-09-19T14:03:45;5.18;;;1.70;;
16612;SDS011;8419;52.358;9.752;2023-09-19T14:06:33;6.43;;;1.48;;
16612;SDS011;8419;52.358;9.752;2023-09-19T14:09:19;3.78;;;1.58;;
16612;SDS011;8419;52.358;9.752;2023-09-19T14:12:06;2.42;;;1.40;;
16612;SDS011;8419;52.358;9.752;2023-09-19T14:14:51;1.75;;;0.98;;
16612;SDS011;8419;52.358;9.752;2023-09-19T14:17:40;5.62;;;1.70;;
16612;SDS011;8419;52.358;9.752;2023-09-19T14:20:27;3.72;;;1.65;;
16612;SDS011;8419;52.358;9.752;2023-09-19T14:23:15;4.22;;;2.08;;
16612;SDS011;8419;52.358;9.752;2023-09-19T14:26:01;3.40;;;1.60;;
16612;SDS011;8419;52.358;9.752;2023-09-19T14:28:47;11.02;;;1.73;;
16612;SDS011;8419;52.358;9.752;2023-09-19T14:31:32;3.78;;;1.08;;
16612;SDS011;8419;52.358;9.752;2023-09-19T14:34:18;4.62;;;1.67;;
16612;SDS011;8419;52.358;9.752;2023-09-19T14:37:04;2.60;;;1.17;;
16612;SDS011;8419;52.358;9.752;2023-09-19T14:39:52;4.43;;;1.55;;
16612;SDS011;8419;52.358;9.752;2023-09-19T14:42:39;3.10;;;1.10;;
16612;SDS011;8419;52.358;9.752;2023-09-19T14:45:28;5.53;;;1.67;;
16612;SDS011;8419;52.358;9.752;2023-09-19T14:48:15;1.08;;;0.98;;
16612;SDS011;8419;52.358;9.752;2023-09-19T14:51:04;3.65;;;1.60;;
16612;SDS011;8419;52.358;9.752;2023-09-19T14:53:53;1.80;;;1.20;;
16612;SDS011;8419;52.358;9.752;2023-09-19T14:56:39;2.00;;;1.02;;
16612;SDS011;8419;52.358;9.752;2023-09-19T14:59:24;3.03;;;1.27;;
16612;SDS011;8419;52.358;9.752;2023-09-19T15:02:10;6.78;;;1.45;;
16612;SDS011;8419;52.358;9.752;2023-09-19T15:04:56;5.15;;;1.40;;
16612;SDS011;8419;52.358;9.752;2023-09-19T15:07:42;3.20;;;1.42;;
16612;SDS011;8419;52.358;9.752;2023-09-19T15:10:27;2.47;;;1.42;;
16612;SDS011;8419;52.358;9.752;2023-09-19T15:13:16;2.00;;;1.05;;
16612;SDS011;8419;52.358;9.752;2023-09-19T15:16:02;2.92;;;1.58;;
16612;SDS011;8419;52.358;9.752;2023-09-19T15:18:53;4.40;;;1.40;;
16612;SDS011;8419;52.358;9.752;2023-09-19T15:21:39;2.35;;;0.90;;
16612;SDS011;8419;52.358;9.752;2023-09-19T15:24:25;2.00;;;1.17;;
16612;SDS011;8419;52.358;9.752;2023-09-19T15:27:10;5.07;;;1.70;;
16612;SDS011;8419;52.358;9.752;2023-09-19T15:29:56;6.65;;;1.52;;
16612;SDS011;8419;52.358;9.752;2023-09-19T15:32:42;3.28;;;1.35;;
16612;SDS011;8419;52.358;9.752;2023-09-19T15:35:28;3.28;;;1.37;;
16612;SDS011;8419;52.358;9.752;2023-09-19T15:38:13;4.93;;;1.55;;
16612;SDS011;8419;52.358;9.752;2023-09-19T15:40:59;1.65;;;1.05;;
16612;SDS011;8419;52.358;9.752;2023-09-19T15:43:45;2.30;;;1.20;;
16612;SDS011;8419;52.358;9.752;2023-09-19T15:46:31;3.17;;;1.23;;
16612;SDS011;8419;52.358;9.752;2023-09-19T15:49:19;2.80;;;1.50;;
16612;SDS011;8419;52.358;9.752;2023-09-19T15:52:05;3.00;;;1.20;;
16612;SDS011;8419;52.358;9.752;2023-09-19T15:54:53;3.05;;;1.20;;
16612;SDS011;8419;52.358;9.752;2023-09-19T15:57:38;5.22;;;1.50;;
16612;SDS011;8419;52.358;9.752;2023-09-19T16:00:24;3.30;;;1.30;;
16612;SDS011;8419;52.358;9.752;2023-09-19T16:03:10;3.03;;;1.50;;
16612;SDS011;8419;52.358;9.752;2023-09-19T16:05:56;3.08;;;0.95;;
16612;SDS011;8419;52.358;9.752;2023-09-19T16:08:41;2.08;;;1.05;;
16612;SDS011;8419;52.358;9.752;2023-09-19T16:11:27;5.43;;;1.17;;
16612;SDS011;8419;52.358;9.752;2023-09-19T16:14:16;1.95;;;1.30;;
16612;SDS011;8419;52.358;9.752;2023-09-19T16:17:04;4.35;;;1.20;;
16612;SDS011;8419;52.358;9.752;2023-09-19T16:19:51;1.90;;;1.15;;
16612;SDS011;8419;52.358;9.752;2023-09-19T16:22:38;4.20;;;1.25;;
16612;SDS011;8419;52.358;9.752;2023-09-19T16:25:24;2.53;;;1.42;;
16612;SDS011;8419;52.358;9.752;2023-09-19T16:28:09;3.75;;;1.30;;
16612;SDS011;8419;52.358;9.752;2023-09-19T16:30:57;2.78;;;1.17;;
16612;SDS011;8419;52.358;9.752;2023-09-19T16:33:46;3.58;;;1.37;;
16612;SDS011;8419;52.358;9.752;2023-09-19T16:36:32;5.28;;;1.58;;
16612;SDS011;8419;52.358;9.752;2023-09-19T16:39:18;2.30;;;1.20;;
16612;SDS011;8419;52.358;9.752;2023-09-19T16:42:04;4.78;;;2.05;;
16612;SDS011;8419;52.358;9.752;2023-09-19T16:44:50;1.00;;;0.85;;
16612;SDS011;8419;52.358;9.752;2023-09-19T16:47:35;5.80;;;1.55;;
16612;SDS011;8419;52.358;9.752;2023-09-19T16:50:20;1.60;;;1.00;;
16612;SDS011;8419;52.358;9.752;2023-09-19T16:53:06;6.10;;;1.90;;
16612;SDS011;8419;52.358;9.752;2023-09-19T16:55:51;6.20;;;1.42;;
16612;SDS011;8419;52.358;9.752;2023-09-19T16:58:37;2.67;;;1.27;;
16612;SDS011;8419;52.358;9.752;2023-09-19T17:01:23;3.28;;;1.33;;
16612;SDS011;8419;52.358;9.752;2023-09-19T17:04:09;3.80;;;1.10;;
16612;SDS011;8419;52.358;9.752;2023-09-19T17:06:57;4.22;;;1.10;;
16612;SDS011;8419;52.358;9.752;2023-09-19T17:09:43;2.08;;;1.10;;
16612;SDS011;8419;52.358;9.752;2023-09-19T17:12:28;1.50;;;1.40;;
16612;SDS011;8419;52.358;9.752;2023-09-19T17:15:13;3.55;;;1.10;;